createdAt,value
2019-04-26T00:01:47.975Z,77.51
2019-04-26T00:04:18.296Z,77.81
2019-04-26T00:06:48.738Z,77.85
2019-04-26T00:09:24.849Z,78.55
2019-04-26T00:12:05.390Z,77.54
2019-04-26T00:14:49.808Z,77.64
2019-04-26T00:17:26.594Z,78.84
2019-04-26T00:19:56.032Z,79.75
2019-04-26T00:22:25.604Z,78.95
2019-04-26T00:24:55.252Z,79.28
2019-04-26T00:27:24.373Z,80.07
2019-04-26T00:29:53.576Z,81.50
2019-04-26T00:32:22.723Z,82.02
2019-04-26T00:34:51.883Z,81.77
2019-04-26T00:37:21.041Z,81.82
2019-04-26T00:39:50.262Z,81.78
2019-04-26T00:42:20.589Z,82.03
2019-04-26T00:44:49.948Z,81.83
2019-04-26T00:47:21.097Z,81.85
2019-04-26T00:49:50.695Z,81.25
2019-04-26T00:52:21.628Z,81.51
2019-04-26T00:54:50.930Z,82.01
2019-04-26T00:57:20.771Z,82.66
2019-04-26T00:59:50.583Z,83.51
2019-04-26T01:02:26.541Z,83.77
2019-04-26T01:04:55.682Z,83.56
2019-04-26T01:07:25.327Z,82.96
2019-04-26T01:09:54.501Z,82.70
2019-04-26T01:12:24.012Z,82.90
2019-04-26T01:14:53.132Z,82.73
2019-04-26T01:17:22.418Z,82.80
2019-04-26T01:19:53.421Z,82.98
2019-04-26T01:22:27.634Z,82.99
2019-04-26T01:24:57.254Z,82.24
2019-04-26T01:27:28.824Z,82.46
2019-04-26T01:30:04.158Z,82.54
2019-04-26T01:32:34.801Z,81.72
2019-04-26T01:35:04.264Z,81.54
2019-04-26T01:37:34.656Z,81.13
2019-04-26T01:40:09.546Z,82.37
2019-04-26T01:43:03.052Z,84.08
2019-04-26T01:45:39.603Z,84.17
2019-04-26T01:48:31.937Z,84.60
2019-04-26T01:51:01.118Z,85.12
2019-04-26T01:53:30.247Z,85.30
2019-04-26T01:55:59.413Z,85.20
2019-04-26T01:58:29.569Z,84.61
2019-04-26T02:01:10.158Z,84.71
2019-04-26T02:03:39.351Z,85.06
2019-04-26T02:06:08.565Z,84.49
2019-04-26T02:08:37.697Z,83.92
2019-04-26T02:11:06.942Z,84.02
2019-04-26T02:13:36.066Z,83.75
2019-04-26T02:16:05.242Z,84.23
2019-04-26T02:18:34.575Z,85.58
2019-04-26T02:21:35.803Z,86.67
2019-04-26T02:24:11.095Z,87.54
2019-04-26T02:26:42.956Z,88.22
2019-04-26T02:29:16.104Z,88.24
2019-04-26T02:31:48.158Z,87.52
2019-04-26T02:34:17.459Z,87.00
2019-04-26T02:36:57.191Z,86.07
2019-04-26T02:39:20.302Z,85.89
2019-04-26T02:41:52.681Z,85.52
2019-04-26T02:44:26.674Z,85.88
2019-04-26T02:47:51.217Z,86.28
2019-04-26T02:50:31.203Z,86.24
2019-04-26T02:53:21.020Z,86.15
2019-04-26T02:56:24.418Z,85.54
2019-04-26T02:59:34.110Z,84.63
2019-04-26T03:02:06.657Z,84.73
2019-04-26T03:04:39.653Z,84.33
2019-04-26T03:07:18.376Z,84.45
2019-04-26T03:09:50.868Z,84.73
2019-04-26T03:12:22.235Z,84.25
2019-04-26T03:15:13.684Z,84.63
2019-04-26T03:17:54.785Z,85.06
2019-04-26T03:20:32.592Z,84.85
2019-04-26T03:23:45.799Z,85.19
2019-04-26T03:26:39.516Z,85.55
2019-04-26T03:29:28.387Z,85.44
2019-04-26T03:32:49.335Z,85.44
2019-04-26T03:35:55.315Z,85.28
2019-04-26T03:38:41.926Z,85.13
2019-04-26T03:41:27.151Z,84.34
2019-04-26T03:44:25.965Z,83.82
2019-04-26T03:46:59.814Z,83.19
2019-04-26T03:49:54.780Z,83.06
2019-04-26T03:52:48.434Z,83.30
2019-04-26T03:56:03.686Z,83.65
2019-04-26T03:59:00.638Z,83.99
2019-04-26T04:01:35.404Z,84.01
2019-04-26T04:04:24.615Z,84.44
2019-04-26T04:07:03.712Z,84.43
2019-04-26T04:09:28.625Z,83.83
2019-04-26T04:12:11.724Z,84.02
2019-04-26T04:14:59.399Z,83.57
2019-04-26T04:17:45.405Z,83.32
2019-04-26T04:20:49.605Z,83.68
2019-04-26T04:23:34.472Z,84.60
2019-04-26T04:26:06.944Z,84.92
2019-04-26T04:28:48.255Z,84.97
2019-04-26T04:31:24.876Z,85.02
2019-04-26T04:34:06.463Z,84.79
2019-04-26T04:36:51.541Z,84.55
2019-04-26T04:39:35.078Z,85.06
2019-04-26T04:42:28.552Z,85.32
2019-04-26T04:45:25.325Z,84.71
2019-04-26T04:48:38.372Z,85.13
2019-04-26T04:51:44.876Z,85.21
2019-04-26T04:54:25.206Z,85.87
2019-04-26T04:57:13.870Z,85.91
2019-04-26T05:00:27.444Z,86.12
2019-04-26T05:03:28.359Z,86.39
2019-04-26T05:06:21.774Z,86.34
2019-04-26T05:09:06.615Z,86.32
2019-04-26T05:11:53.988Z,87.26
2019-04-26T05:15:13.396Z,87.00
2019-04-26T05:18:04.119Z,87.81
2019-04-26T05:20:53.271Z,89.06
2019-04-26T05:23:51.526Z,90.54
2019-04-26T05:27:31.724Z,90.93
2019-04-26T05:31:14.958Z,90.91
2019-04-26T05:34:35.902Z,92.16
2019-04-26T05:37:42.415Z,92.02
2019-04-26T05:41:01.184Z,92.95
2019-04-26T05:44:16.032Z,93.46
2019-04-26T05:47:35.974Z,93.73
2019-04-26T05:51:08.070Z,94.18
2019-04-26T05:54:42.942Z,93.86
2019-04-26T05:57:37.008Z,94.96
2019-04-26T06:00:33.630Z,95.23
2019-04-26T06:03:33.208Z,93.90
2019-04-26T06:06:37.646Z,94.19
2019-04-26T06:09:34.275Z,94.86
2019-04-26T06:12:32.530Z,95.27
2019-04-26T06:15:28.956Z,95.39
2019-04-26T06:18:31.529Z,96.47
2019-04-26T06:21:13.356Z,96.49
2019-04-26T06:24:25.973Z,97.76
2019-04-26T06:27:49.201Z,98.39
2019-04-26T06:30:26.348Z,98.74
2019-04-26T06:33:20.644Z,99.07
2019-04-26T06:35:54.755Z,99.92
2019-04-26T06:39:19.116Z,100.00
2019-04-26T06:42:28.530Z,100.00
2019-04-26T06:45:44.206Z,99.82
2019-04-26T06:48:28.014Z,99.41
2019-04-26T06:51:05.029Z,99.68
2019-04-26T06:54:02.068Z,100.00
2019-04-26T06:56:50.360Z,100.00
2019-04-26T07:00:04.468Z,100.00
2019-04-26T07:02:55.268Z,100.00
2019-04-26T07:05:29.245Z,100.00
2019-04-26T07:08:28.090Z,100.00
2019-04-26T07:12:03.049Z,100.00
2019-04-26T07:15:05.879Z,100.00
2019-04-26T07:17:49.222Z,100.00
2019-04-26T07:20:37.150Z,100.00
2019-04-26T07:23:54.850Z,99.85
2019-04-26T07:26:56.761Z,99.67
2019-04-26T07:30:13.503Z,99.87
2019-04-26T07:33:20.785Z,100.00
2019-04-26T07:36:16.467Z,99.52
2019-04-26T07:39:19.886Z,99.72
2019-04-26T07:42:16.192Z,100.00
2019-04-26T07:45:23.843Z,99.43
2019-04-26T07:48:47.920Z,99.50
2019-04-26T07:52:02.774Z,99.83
2019-04-26T07:55:28.332Z,100.00
2019-04-26T07:58:52.955Z,100.00
2019-04-26T08:01:56.517Z,99.38
2019-04-26T08:04:33.764Z,99.21
2019-04-26T08:07:13.258Z,99.25
2019-04-26T08:09:59.601Z,99.12
2019-04-26T08:12:22.762Z,98.41
2019-04-26T08:15:38.473Z,99.73
2019-04-26T08:18:34.617Z,99.88
2019-04-26T08:21:16.815Z,98.96
2019-04-26T08:24:02.873Z,99.49
2019-04-26T08:26:35.117Z,98.46
2019-04-26T08:29:06.869Z,99.04
2019-04-26T08:31:38.932Z,98.03
2019-04-26T08:34:12.408Z,98.31
2019-04-26T08:36:57.265Z,99.06
2019-04-26T08:39:44.559Z,98.86
2019-04-26T08:42:03.370Z,99.05
2019-04-26T08:44:47.195Z,98.33
2019-04-26T08:47:39.694Z,98.20
2019-04-26T08:50:38.467Z,98.29
2019-04-26T08:53:09.634Z,98.83
2019-04-26T08:55:41.824Z,98.06
2019-04-26T08:58:13.895Z,97.67
2019-04-26T09:00:53.126Z,96.99
2019-04-26T09:03:44.253Z,96.92
2019-04-26T09:06:37.260Z,96.73
2019-04-26T09:09:21.967Z,97.33
2019-04-26T09:11:59.744Z,97.49
2019-04-26T09:14:27.198Z,97.60
2019-04-26T09:16:56.560Z,98.12
2019-04-26T09:19:26.188Z,97.72
2019-04-26T09:22:15.586Z,97.06
2019-04-26T09:25:09.749Z,97.57
2019-04-26T09:27:58.986Z,97.76
2019-04-26T09:30:38.582Z,97.10
2019-04-26T09:33:26.162Z,96.71
2019-04-26T09:35:55.348Z,96.64
2019-04-26T09:38:24.551Z,96.85
2019-04-26T09:40:56.290Z,96.39
2019-04-26T09:43:37.891Z,96.73
2019-04-26T09:46:26.112Z,97.59
2019-04-26T09:49:15.921Z,96.97
2019-04-26T09:51:45.086Z,96.55
2019-04-26T09:54:15.539Z,96.62
2019-04-26T09:56:44.707Z,95.54
2019-04-26T09:59:14.032Z,96.32
2019-04-26T10:01:43.151Z,95.13
2019-04-26T10:04:12.482Z,96.45
2019-04-26T10:06:41.746Z,97.08
2019-04-26T10:09:17.232Z,97.26
2019-04-26T10:11:54.062Z,96.86
2019-04-26T10:14:57.674Z,97.35
2019-04-26T10:17:31.440Z,96.45
2019-04-26T10:20:00.601Z,97.40
2019-04-26T10:22:32.576Z,95.61
2019-04-26T10:25:02.357Z,95.24
2019-04-26T10:27:36.085Z,96.42
2019-04-26T10:30:08.881Z,97.32
2019-04-26T10:32:35.924Z,95.99
2019-04-26T10:35:05.346Z,96.19
2019-04-26T10:37:39.759Z,95.96
2019-04-26T10:40:06.299Z,94.43
2019-04-26T10:42:35.468Z,94.09
2019-04-26T10:45:05.608Z,94.12
2019-04-26T10:47:38.382Z,92.62
2019-04-26T10:50:05.938Z,94.53
2019-04-26T10:52:54.401Z,93.67
2019-04-26T10:55:41.350Z,92.75
2019-04-26T10:58:16.366Z,92.67
2019-04-26T11:00:48.360Z,92.89
2019-04-26T11:03:18.444Z,92.02
2019-04-26T11:05:49.291Z,91.65
2019-04-26T11:08:18.818Z,90.51
2019-04-26T11:10:49.088Z,91.88
2019-04-26T11:13:18.261Z,92.06
2019-04-26T11:15:47.739Z,91.46
2019-04-26T11:18:19.815Z,90.02
2019-04-26T11:20:47.878Z,90.55
2019-04-26T11:23:17.050Z,90.00
2019-04-26T11:25:46.258Z,91.58
2019-04-26T11:28:17.143Z,91.34
2019-04-26T11:30:48.054Z,91.17
2019-04-26T11:33:17.592Z,90.36
2019-04-26T11:35:46.767Z,90.18
2019-04-26T11:38:15.962Z,90.11
2019-04-26T11:40:49.808Z,90.53
2019-04-26T11:43:19.555Z,90.80
2019-04-26T11:45:49.343Z,89.47
2019-04-26T11:48:18.005Z,89.27
2019-04-26T11:50:48.164Z,90.31
2019-04-26T11:53:18.132Z,91.68
2019-04-26T11:55:47.290Z,89.78
2019-04-26T11:58:17.818Z,91.01
2019-04-26T12:00:52.324Z,91.18
2019-04-26T12:03:24.908Z,90.87
2019-04-26T12:06:02.353Z,91.27
2019-04-26T12:08:50.458Z,90.44
2019-04-26T12:11:25.939Z,90.53
2019-04-26T12:13:50.573Z,87.31
2019-04-26T12:16:20.478Z,88.41
2019-04-26T12:18:49.855Z,88.32
2019-04-26T12:21:19.032Z,87.39
2019-04-26T12:23:51.419Z,84.85
2019-04-26T12:26:21.735Z,87.76
2019-04-26T12:28:50.162Z,85.72
2019-04-26T12:31:19.346Z,85.34
2019-04-26T12:33:48.557Z,82.99
2019-04-26T12:36:17.743Z,83.97
2019-04-26T12:38:46.887Z,83.73
2019-04-26T12:41:17.175Z,83.70
2019-04-26T12:43:47.071Z,85.41
2019-04-26T12:46:38.324Z,83.92
2019-04-26T12:49:07.552Z,81.34
2019-04-26T12:51:38.403Z,84.22
2019-04-26T12:54:08.227Z,84.23
2019-04-26T12:56:38.447Z,83.29
2019-04-26T12:59:07.702Z,84.47
2019-04-26T13:01:36.952Z,83.97
2019-04-26T13:04:07.038Z,83.32
2019-04-26T13:06:43.016Z,79.20
2019-04-26T13:09:15.651Z,78.16
2019-04-26T13:12:19.150Z,77.38
2019-04-26T13:15:05.456Z,75.11
2019-04-26T13:17:47.333Z,79.00
2019-04-26T13:20:16.504Z,79.32
2019-04-26T13:22:46.482Z,79.65
2019-04-26T13:25:26.216Z,81.04
2019-04-26T13:27:47.528Z,81.50
2019-04-26T13:30:16.893Z,82.29
2019-04-26T13:32:49.305Z,79.42
2019-04-26T13:35:16.990Z,80.67
2019-04-26T13:37:46.142Z,82.49
2019-04-26T13:40:15.676Z,82.10
2019-04-26T13:42:47.379Z,81.92
2019-04-26T13:45:40.688Z,83.78
2019-04-26T13:48:31.807Z,83.47
2019-04-26T13:51:06.035Z,85.31
2019-04-26T13:53:35.151Z,85.05
2019-04-26T13:56:04.331Z,87.65
2019-04-26T13:58:33.517Z,87.26
2019-04-26T14:01:04.551Z,88.25
2019-04-26T14:03:33.747Z,86.92
2019-04-26T14:06:02.990Z,86.13
2019-04-26T14:08:32.192Z,86.29
2019-04-26T14:11:01.352Z,88.45
2019-04-26T14:13:30.515Z,86.99
2019-04-26T14:15:59.944Z,88.12
2019-04-26T14:18:30.312Z,87.91
2019-04-26T14:21:00.176Z,88.46
2019-04-26T14:23:45.235Z,87.37
2019-04-26T14:28:58.118Z,87.26
2019-04-26T14:31:28.039Z,85.43
2019-04-26T14:33:57.215Z,84.41
2019-04-26T14:36:26.897Z,84.42
2019-04-26T14:39:05.533Z,84.91
2019-04-26T14:41:27.805Z,84.08
2019-04-26T14:43:57.878Z,84.95
2019-04-26T14:46:27.064Z,84.06
2019-04-26T14:49:02.115Z,83.15
2019-04-26T14:51:27.154Z,84.86
2019-04-26T14:53:56.382Z,84.12
2019-04-26T14:56:29.249Z,85.99
2019-04-26T14:58:56.490Z,84.82
2019-04-26T15:01:52.270Z,84.99
2019-04-26T15:04:48.267Z,85.06
2019-04-26T15:07:17.404Z,84.14
2019-04-26T15:09:46.610Z,83.80
2019-04-26T15:12:15.993Z,84.44
2019-04-26T15:14:45.543Z,82.58
2019-04-26T15:17:16.399Z,82.86
2019-04-26T15:19:47.220Z,83.52
2019-04-26T15:22:16.577Z,84.28
2019-04-26T15:24:45.762Z,84.24
2019-04-26T15:27:15.013Z,84.43
2019-04-26T15:29:44.155Z,83.62
2019-04-26T15:32:13.309Z,82.08
2019-04-26T15:34:42.449Z,83.68
2019-04-26T15:37:12.876Z,84.63
2019-04-26T15:39:58.263Z,83.24
2019-04-26T15:42:42.209Z,84.27
2019-04-26T15:45:39.024Z,82.87
2019-04-26T15:48:28.775Z,83.21
2019-04-26T15:50:58.206Z,82.80
2019-04-26T15:53:27.386Z,81.61
2019-04-26T15:55:56.570Z,82.10
2019-04-26T15:58:26.065Z,82.00
2019-04-26T16:00:55.316Z,81.99
2019-04-26T16:03:24.473Z,81.95
2019-04-26T16:05:53.673Z,82.30
2019-04-26T16:08:22.948Z,83.87
2019-04-26T16:10:53.218Z,83.36
2019-04-26T16:13:24.085Z,82.75
2019-04-26T16:15:53.712Z,82.22
2019-04-26T16:18:22.954Z,83.22
2019-04-26T16:20:53.352Z,83.52
2019-04-26T16:23:24.164Z,82.39
2019-04-26T16:25:53.595Z,83.40
2019-04-26T16:28:33.329Z,82.44
2019-04-26T16:31:32.207Z,82.73
2019-04-26T16:34:10.449Z,82.64
2019-04-26T16:36:36.722Z,81.45
2019-04-26T16:39:09.242Z,81.04
2019-04-26T16:41:38.397Z,80.16
2019-04-26T16:44:07.606Z,80.90
2019-04-26T16:46:36.725Z,81.51
2019-04-26T16:49:11.354Z,81.94
2019-04-26T16:51:37.272Z,81.97
2019-04-26T16:54:10.253Z,81.25
2019-04-26T16:56:37.345Z,81.57
2019-04-26T16:59:06.782Z,81.27
2019-04-26T17:01:38.105Z,81.46
2019-04-26T17:04:11.169Z,82.56
2019-04-26T17:06:44.364Z,82.44
2019-04-26T17:09:08.950Z,81.86
2019-04-26T17:11:41.314Z,81.98
2019-04-26T17:14:10.343Z,82.35
2019-04-26T17:16:39.998Z,82.78
2019-04-26T17:19:09.268Z,82.81
2019-04-26T17:21:45.260Z,83.67
2019-04-26T17:24:22.956Z,82.70
2019-04-26T17:26:56.353Z,83.19
2019-04-26T17:29:25.535Z,83.95
2019-04-26T17:31:54.700Z,84.78
2019-04-26T17:34:28.748Z,85.95
2019-04-26T17:36:54.843Z,86.87
2019-04-26T17:39:24.037Z,86.54
2019-04-26T17:41:54.414Z,87.58
2019-04-26T17:44:26.566Z,88.08
2019-04-26T17:46:57.046Z,87.99
2019-04-26T17:49:27.498Z,88.62
2019-04-26T17:51:58.401Z,88.27
2019-04-26T17:54:43.729Z,88.60
2019-04-26T17:56:59.599Z,89.26
2019-04-26T17:59:34.613Z,89.96
2019-04-26T18:02:01.068Z,89.83
2019-04-26T18:04:36.035Z,89.65
2019-04-26T18:07:06.834Z,89.67
2019-04-26T18:09:45.853Z,89.87
2019-04-26T18:12:04.673Z,90.24
2019-04-26T18:14:33.830Z,90.50
2019-04-26T18:17:14.222Z,90.09
2019-04-26T18:19:50.892Z,89.85
2019-04-26T18:22:45.049Z,90.52
2019-04-26T18:25:14.831Z,91.92
2019-04-26T18:27:44.023Z,92.86
2019-04-26T18:30:14.355Z,93.26
2019-04-26T18:32:47.851Z,93.39
2019-04-26T18:35:16.829Z,92.89
2019-04-26T18:37:45.767Z,92.89
2019-04-26T18:40:15.067Z,93.08
2019-04-26T18:42:44.524Z,93.26
2019-04-26T18:45:14.051Z,93.50
2019-04-26T18:47:45.055Z,93.49
2019-04-26T18:50:15.366Z,93.63
2019-04-26T18:53:03.500Z,93.46
2019-04-26T18:55:34.382Z,93.42
2019-04-26T18:58:05.500Z,93.73
2019-04-26T19:00:37.497Z,93.71
2019-04-26T19:03:07.022Z,94.31
2019-04-26T19:05:36.295Z,94.26
2019-04-26T19:08:07.358Z,94.94
2019-04-26T19:10:36.925Z,95.25
2019-04-26T19:13:18.266Z,95.75
2019-04-26T19:15:54.375Z,96.43
2019-04-26T19:18:33.973Z,97.43
2019-04-26T19:21:13.059Z,97.41
2019-04-26T19:23:42.203Z,97.61
2019-04-26T19:26:13.782Z,97.37
2019-04-26T19:28:44.374Z,96.74
2019-04-26T19:31:13.271Z,96.78
2019-04-26T19:33:42.886Z,96.58
2019-04-26T19:36:13.752Z,96.50
2019-04-26T19:38:43.725Z,96.79
2019-04-26T19:41:17.339Z,96.44
2019-04-26T19:43:46.191Z,96.30
2019-04-26T19:46:32.231Z,96.24
2019-04-26T19:49:33.452Z,96.36
2019-04-26T19:52:39.485Z,97.34
2019-04-26T19:55:28.237Z,97.34
2019-04-26T19:58:05.816Z,97.52
2019-04-26T20:00:38.609Z,98.32
2019-04-26T20:03:08.565Z,99.08
2019-04-26T20:05:40.434Z,98.75
2019-04-26T20:08:09.545Z,98.47
2019-04-26T20:10:40.538Z,99.18
2019-04-26T20:13:14.978Z,99.95
2019-04-26T20:15:42.253Z,99.75
2019-04-26T20:18:12.273Z,99.47
2019-04-26T20:20:41.631Z,99.97
2019-04-26T20:23:12.378Z,100.00
2019-04-26T20:25:41.619Z,100.00
2019-04-26T20:28:12.194Z,100.00
2019-04-26T20:30:57.838Z,100.00
2019-04-26T20:33:30.463Z,100.00
2019-04-26T20:36:01.450Z,100.00
2019-04-26T20:38:28.287Z,100.00
2019-04-26T20:40:57.499Z,100.00
2019-04-26T20:43:26.896Z,100.00
2019-04-26T20:46:10.868Z,100.00
2019-04-26T20:48:30.005Z,100.00
2019-04-26T20:50:57.953Z,100.00
2019-04-26T20:53:30.829Z,100.00
2019-04-26T20:55:58.062Z,100.00
2019-04-26T20:58:27.265Z,100.00
2019-04-26T21:00:56.479Z,100.00
2019-04-26T21:03:27.772Z,100.00
2019-04-26T21:05:58.971Z,100.00
2019-04-26T21:08:27.660Z,100.00
2019-04-26T21:11:00.258Z,100.00
2019-04-26T21:13:30.574Z,100.00
2019-04-26T21:16:03.564Z,100.00
2019-04-26T21:18:33.779Z,100.00
2019-04-26T21:21:01.500Z,100.00
2019-04-26T21:23:34.997Z,100.00
2019-04-26T21:26:17.585Z,100.00
2019-04-26T21:29:07.315Z,100.00
2019-04-26T21:31:59.473Z,100.00
2019-04-26T21:34:34.495Z,100.00
2019-04-26T21:37:22.176Z,100.00
2019-04-26T21:40:05.682Z,100.00
2019-04-26T21:42:34.795Z,100.00
2019-04-26T21:45:04.465Z,100.00
2019-04-26T21:47:35.521Z,100.00
2019-04-26T21:50:04.844Z,100.00
2019-04-26T21:52:34.376Z,100.00
2019-04-26T21:55:04.610Z,100.00
2019-04-26T21:57:34.992Z,100.00
2019-04-26T22:00:08.020Z,100.00
2019-04-26T22:02:37.550Z,100.00
2019-04-26T22:05:08.097Z,100.00
2019-04-26T22:07:39.494Z,100.00
2019-04-26T22:10:18.384Z,100.00
2019-04-26T22:12:47.527Z,100.00
2019-04-26T22:15:37.509Z,100.00
2019-04-26T22:18:21.252Z,100.00
2019-04-26T22:20:55.675Z,100.00
2019-04-26T22:23:38.978Z,100.00
2019-04-26T22:26:09.273Z,100.00
2019-04-26T22:28:38.450Z,100.00
2019-04-26T22:31:08.618Z,100.00
2019-04-26T22:33:38.269Z,100.00
2019-04-26T22:36:07.624Z,100.00
2019-04-26T22:38:36.819Z,100.00
2019-04-26T22:41:05.987Z,100.00
2019-04-26T22:43:55.236Z,100.00
2019-04-26T22:46:47.327Z,100.00
2019-04-26T22:49:13.924Z,100.00
2019-04-26T22:51:43.605Z,100.00
2019-04-26T22:54:12.862Z,100.00
2019-04-26T22:56:43.824Z,100.00
2019-04-26T22:59:13.952Z,100.00
2019-04-26T23:01:44.796Z,100.00
2019-04-26T23:04:16.323Z,100.00
2019-04-26T23:06:47.044Z,100.00
2019-04-26T23:09:20.451Z,100.00
2019-04-26T23:11:53.858Z,100.00
2019-04-26T23:14:36.746Z,100.00
2019-04-26T23:17:21.054Z,100.00
2019-04-26T23:19:57.510Z,100.00
2019-04-26T23:22:30.966Z,100.00
2019-04-26T23:24:58.151Z,100.00
2019-04-26T23:27:27.427Z,100.00
2019-04-26T23:29:58.332Z,100.00
2019-04-26T23:32:27.695Z,100.00
2019-04-26T23:34:58.254Z,100.00
2019-04-26T23:37:29.766Z,100.00
2019-04-26T23:39:59.163Z,100.00
2019-04-26T23:42:28.354Z,100.00
2019-04-26T23:44:57.456Z,100.00
2019-04-26T23:47:27.189Z,100.00
2019-04-26T23:49:57.117Z,100.00
2019-04-26T23:52:26.265Z,100.00
2019-04-26T23:54:55.423Z,100.00
2019-04-26T23:57:27.413Z,100.00
2019-04-26T23:59:59.799Z,100.00
